Archival Weather

Republic

Farmingdale, New York (KFRG)

Report from: Saturday, February 17, 2024 6:00 AM EST
Current time: Friday, June 21, 2024 8:51 PM EDT

Current weather – Weather history – Daily summaries
Weather forecast

Present weatherMist
Temperature-1.1°C (30.0°F)
Wind chill-3.8°C (25.1°F)
Dew point-2.8°C (27.0°F)
Winds 4 kts (2.1 m/s, 4.6 mph) North-Northeast (30°)
Visibility1.8 mi. (2.8 km)
Clouds Few clouds 500 ft. (152 m)
Ceiling: Overcast 1,900 ft. (579 m)
Altimeter29.75 in.Hg (1007 mB)
Relative humidity88 %
Density altitude-1,697 ft. (-517 m)
Remarks Fully automated report
Automated weather observing station without precipitation discriminator
Freezing rain sensor not operating
Flight conditions Instrument Meteorological Conditions
Raw dataKFRG 171100Z AUTO 03004KT 1 3/4SM BR FEW005 OVC019 M01/M03 A2975 RMK AO1 T10111028 FZRANO
An error has occurred. This application may no longer respond until reloaded. Reload 🗙